sensor_id;sensor_type;location;lat;lon;timestamp;P1;durP1;ratioP1;P2;durP2;ratioP2
73776;SDS011;62088;50.240;2.696;2023-11-18T00:01:50;11.57;;;2.47;;
73776;SDS011;62088;50.240;2.696;2023-11-18T00:04:17;12.98;;;2.63;;
73776;SDS011;62088;50.240;2.696;2023-11-18T00:06:44;11.02;;;2.97;;
73776;SDS011;62088;50.240;2.696;2023-11-18T00:09:12;7.43;;;2.22;;
73776;SDS011;62088;50.240;2.696;2023-11-18T00:11:41;5.70;;;2.30;;
73776;SDS011;62088;50.240;2.696;2023-11-18T00:14:09;11.52;;;2.47;;
73776;SDS011;62088;50.240;2.696;2023-11-18T00:16:40;5.47;;;2.10;;
73776;SDS011;62088;50.240;2.696;2023-11-18T00:19:07;16.42;;;2.95;;
73776;SDS011;62088;50.240;2.696;2023-11-18T00:21:35;10.45;;;2.45;;
73776;SDS011;62088;50.240;2.696;2023-11-18T00:24:03;5.05;;;2.17;;
73776;SDS011;62088;50.240;2.696;2023-11-18T00:26:31;5.55;;;1.73;;
73776;SDS011;62088;50.240;2.696;2023-11-18T00:28:59;5.88;;;1.70;;
73776;SDS011;62088;50.240;2.696;2023-11-18T00:31:29;6.07;;;2.40;;
73776;SDS011;62088;50.240;2.696;2023-11-18T00:33:56;5.88;;;2.10;;
73776;SDS011;62088;50.240;2.696;2023-11-18T00:36:23;8.00;;;2.03;;
73776;SDS011;62088;50.240;2.696;2023-11-18T00:38:50;9.68;;;3.33;;
73776;SDS011;62088;50.240;2.696;2023-11-18T00:41:17;11.82;;;2.92;;
73776;SDS011;62088;50.240;2.696;2023-11-18T00:43:44;6.03;;;2.63;;
73776;SDS011;62088;50.240;2.696;2023-11-18T00:46:11;11.85;;;2.78;;
73776;SDS011;62088;50.240;2.696;2023-11-18T00:48:39;9.23;;;2.30;;
73776;SDS011;62088;50.240;2.696;2023-11-18T00:51:06;5.65;;;2.83;;
73776;SDS011;62088;50.240;2.696;2023-11-18T00:53:34;8.77;;;2.95;;
73776;SDS011;62088;50.240;2.696;2023-11-18T00:56:01;9.35;;;2.88;;
73776;SDS011;62088;50.240;2.696;2023-11-18T00:58:28;9.27;;;2.40;;
73776;SDS011;62088;50.240;2.696;2023-11-18T01:00:56;6.68;;;2.70;;
73776;SDS011;62088;50.240;2.696;2023-11-18T01:03:23;8.38;;;2.85;;
73776;SDS011;62088;50.240;2.696;2023-11-18T01:05:50;10.38;;;2.72;;
73776;SDS011;62088;50.240;2.696;2023-11-18T01:08:17;5.25;;;2.53;;
73776;SDS011;62088;50.240;2.696;2023-11-18T01:10:44;19.20;;;2.88;;
73776;SDS011;62088;50.240;2.696;2023-11-18T01:13:11;9.45;;;2.50;;
73776;SDS011;62088;50.240;2.696;2023-11-18T01:15:38;8.50;;;2.15;;
73776;SDS011;62088;50.240;2.696;2023-11-18T01:18:05;9.38;;;2.25;;
73776;SDS011;62088;50.240;2.696;2023-11-18T01:20:33;8.57;;;3.03;;
73776;SDS011;62088;50.240;2.696;2023-11-18T01:23:00;18.30;;;2.58;;
73776;SDS011;62088;50.240;2.696;2023-11-18T01:25:27;9.30;;;2.22;;
73776;SDS011;62088;50.240;2.696;2023-11-18T01:27:56;5.13;;;2.30;;
73776;SDS011;62088;50.240;2.696;2023-11-18T01:30:22;7.25;;;2.95;;
73776;SDS011;62088;50.240;2.696;2023-11-18T01:32:50;7.75;;;2.30;;
73776;SDS011;62088;50.240;2.696;2023-11-18T01:35:17;14.18;;;2.97;;
73776;SDS011;62088;50.240;2.696;2023-11-18T01:37:46;7.97;;;3.08;;
73776;SDS011;62088;50.240;2.696;2023-11-18T01:40:15;5.90;;;2.75;;
73776;SDS011;62088;50.240;2.696;2023-11-18T01:42:43;13.23;;;2.97;;
73776;SDS011;62088;50.240;2.696;2023-11-18T01:45:13;8.70;;;2.47;;
73776;SDS011;62088;50.240;2.696;2023-11-18T01:47:40;6.15;;;2.45;;
73776;SDS011;62088;50.240;2.696;2023-11-18T01:50:09;9.38;;;2.47;;
73776;SDS011;62088;50.240;2.696;2023-11-18T01:52:38;7.50;;;2.33;;
73776;SDS011;62088;50.240;2.696;2023-11-18T01:55:11;6.80;;;2.53;;
73776;SDS011;62088;50.240;2.696;2023-11-18T01:57:40;7.18;;;2.40;;
73776;SDS011;62088;50.240;2.696;2023-11-18T02:00:11;10.07;;;2.30;;
73776;SDS011;62088;50.240;2.696;2023-11-18T02:02:40;6.85;;;2.45;;
73776;SDS011;62088;50.240;2.696;2023-11-18T02:05:08;8.90;;;2.65;;
73776;SDS011;62088;50.240;2.696;2023-11-18T02:07:35;6.63;;;2.67;;
73776;SDS011;62088;50.240;2.696;2023-11-18T02:10:04;7.53;;;2.47;;
73776;SDS011;62088;50.240;2.696;2023-11-18T02:15:10;8.57;;;2.92;;
73776;SDS011;62088;50.240;2.696;2023-11-18T02:17:39;6.93;;;2.00;;
73776;SDS011;62088;50.240;2.696;2023-11-18T02:20:09;9.38;;;3.28;;
73776;SDS011;62088;50.240;2.696;2023-11-18T02:22:44;10.15;;;2.95;;
73776;SDS011;62088;50.240;2.696;2023-11-18T02:25:17;6.30;;;2.28;;
73776;SDS011;62088;50.240;2.696;2023-11-18T02:27:45;9.30;;;2.60;;
73776;SDS011;62088;50.240;2.696;2023-11-18T02:30:16;6.88;;;2.40;;
73776;SDS011;62088;50.240;2.696;2023-11-18T02:32:57;7.75;;;2.83;;
73776;SDS011;62088;50.240;2.696;2023-11-18T02:35:34;8.07;;;3.22;;
73776;SDS011;62088;50.240;2.696;2023-11-18T02:38:04;9.45;;;3.28;;
73776;SDS011;62088;50.240;2.696;2023-11-18T02:40:32;7.05;;;2.50;;
73776;SDS011;62088;50.240;2.696;2023-11-18T02:43:05;8.25;;;2.33;;
73776;SDS011;62088;50.240;2.696;2023-11-18T02:45:34;5.13;;;2.25;;
73776;SDS011;62088;50.240;2.696;2023-11-18T02:48:05;12.38;;;2.95;;
73776;SDS011;62088;50.240;2.696;2023-11-18T02:50:34;7.78;;;3.22;;
73776;SDS011;62088;50.240;2.696;2023-11-18T02:53:03;13.85;;;2.65;;
73776;SDS011;62088;50.240;2.696;2023-11-18T02:55:30;12.52;;;3.30;;
73776;SDS011;62088;50.240;2.696;2023-11-18T02:57:57;8.77;;;2.97;;
73776;SDS011;62088;50.240;2.696;2023-11-18T03:00:24;8.70;;;2.72;;
73776;SDS011;62088;50.240;2.696;2023-11-18T03:02:51;8.10;;;2.97;;
73776;SDS011;62088;50.240;2.696;2023-11-18T03:05:19;10.18;;;3.28;;
73776;SDS011;62088;50.240;2.696;2023-11-18T03:07:47;12.90;;;3.95;;
73776;SDS011;62088;50.240;2.696;2023-11-18T03:10:20;18.10;;;3.90;;
73776;SDS011;62088;50.240;2.696;2023-11-18T03:12:48;6.57;;;3.10;;
73776;SDS011;62088;50.240;2.696;2023-11-18T03:15:20;10.60;;;3.08;;
73776;SDS011;62088;50.240;2.696;2023-11-18T03:17:48;10.90;;;3.25;;
73776;SDS011;62088;50.240;2.696;2023-11-18T03:20:17;9.45;;;3.42;;
73776;SDS011;62088;50.240;2.696;2023-11-18T03:22:50;8.60;;;3.60;;
73776;SDS011;62088;50.240;2.696;2023-11-18T03:25:19;8.20;;;3.72;;
73776;SDS011;62088;50.240;2.696;2023-11-18T03:27:48;14.80;;;3.83;;
73776;SDS011;62088;50.240;2.696;2023-11-18T03:30:15;14.23;;;3.78;;
73776;SDS011;62088;50.240;2.696;2023-11-18T03:32:43;8.52;;;3.97;;
73776;SDS011;62088;50.240;2.696;2023-11-18T03:35:11;9.82;;;4.45;;
73776;SDS011;62088;50.240;2.696;2023-11-18T03:37:39;7.22;;;2.92;;
73776;SDS011;62088;50.240;2.696;2023-11-18T03:40:14;12.18;;;3.58;;
73776;SDS011;62088;50.240;2.696;2023-11-18T03:42:42;7.60;;;3.90;;
73776;SDS011;62088;50.240;2.696;2023-11-18T03:45:09;7.72;;;3.28;;
73776;SDS011;62088;50.240;2.696;2023-11-18T03:47:37;6.57;;;3.40;;
73776;SDS011;62088;50.240;2.696;2023-11-18T03:50:04;7.25;;;3.58;;
73776;SDS011;62088;50.240;2.696;2023-11-18T03:52:35;7.35;;;3.35;;
73776;SDS011;62088;50.240;2.696;2023-11-18T03:55:04;8.48;;;3.95;;
73776;SDS011;62088;50.240;2.696;2023-11-18T03:57:32;9.23;;;3.97;;
73776;SDS011;62088;50.240;2.696;2023-11-18T03:59:59;11.23;;;4.15;;
73776;SDS011;62088;50.240;2.696;2023-11-18T04:02:26;11.30;;;4.25;;
73776;SDS011;62088;50.240;2.696;2023-11-18T04:04:55;15.05;;;4.75;;
73776;SDS011;62088;50.240;2.696;2023-11-18T04:07:22;10.32;;;4.38;;
73776;SDS011;62088;50.240;2.696;2023-11-18T04:09:49;9.00;;;4.35;;
73776;SDS011;62088;50.240;2.696;2023-11-18T04:12:17;8.02;;;4.30;;
73776;SDS011;62088;50.240;2.696;2023-11-18T04:14:44;9.88;;;4.30;;
73776;SDS011;62088;50.240;2.696;2023-11-18T04:17:10;17.02;;;4.97;;
73776;SDS011;62088;50.240;2.696;2023-11-18T04:19:38;8.80;;;4.63;;
73776;SDS011;62088;50.240;2.696;2023-11-18T04:22:05;16.88;;;4.55;;
73776;SDS011;62088;50.240;2.696;2023-11-18T04:24:32;11.68;;;4.78;;
73776;SDS011;62088;50.240;2.696;2023-11-18T04:27:02;15.07;;;5.10;;
73776;SDS011;62088;50.240;2.696;2023-11-18T04:29:29;18.30;;;4.93;;
73776;SDS011;62088;50.240;2.696;2023-11-18T04:31:56;10.57;;;4.32;;
73776;SDS011;62088;50.240;2.696;2023-11-18T04:34:23;9.48;;;4.78;;
73776;SDS011;62088;50.240;2.696;2023-11-18T04:36:51;10.90;;;4.10;;
73776;SDS011;62088;50.240;2.696;2023-11-18T04:39:18;11.00;;;5.32;;
73776;SDS011;62088;50.240;2.696;2023-11-18T04:41:47;10.82;;;4.65;;
73776;SDS011;62088;50.240;2.696;2023-11-18T04:44:14;8.52;;;5.38;;
73776;SDS011;62088;50.240;2.696;2023-11-18T04:46:43;12.15;;;5.93;;
73776;SDS011;62088;50.240;2.696;2023-11-18T04:49:11;16.02;;;5.60;;
73776;SDS011;62088;50.240;2.696;2023-11-18T04:51:38;10.77;;;5.85;;
73776;SDS011;62088;50.240;2.696;2023-11-18T04:54:06;13.40;;;6.80;;
73776;SDS011;62088;50.240;2.696;2023-11-18T04:56:34;13.18;;;5.65;;
73776;SDS011;62088;50.240;2.696;2023-11-18T04:59:04;23.42;;;7.63;;
73776;SDS011;62088;50.240;2.696;2023-11-18T05:01:32;12.15;;;5.97;;
73776;SDS011;62088;50.240;2.696;2023-11-18T05:03:59;16.58;;;5.38;;
73776;SDS011;62088;50.240;2.696;2023-11-18T05:06:27;8.98;;;5.47;;
73776;SDS011;62088;50.240;2.696;2023-11-18T05:08:54;13.82;;;5.75;;
73776;SDS011;62088;50.240;2.696;2023-11-18T05:11:21;14.90;;;5.55;;
73776;SDS011;62088;50.240;2.696;2023-11-18T05:13:48;12.30;;;5.93;;
73776;SDS011;62088;50.240;2.696;2023-11-18T05:16:16;12.60;;;5.00;;
73776;SDS011;62088;50.240;2.696;2023-11-18T05:18:43;9.77;;;5.00;;
73776;SDS011;62088;50.240;2.696;2023-11-18T05:21:10;11.27;;;5.43;;
73776;SDS011;62088;50.240;2.696;2023-11-18T05:23:37;9.25;;;5.43;;
73776;SDS011;62088;50.240;2.696;2023-11-18T05:26:04;14.38;;;6.00;;
73776;SDS011;62088;50.240;2.696;2023-11-18T05:28:32;15.65;;;6.13;;
73776;SDS011;62088;50.240;2.696;2023-11-18T05:31:00;17.33;;;6.28;;
73776;SDS011;62088;50.240;2.696;2023-11-18T05:33:31;12.38;;;6.22;;
73776;SDS011;62088;50.240;2.696;2023-11-18T05:36:01;12.60;;;6.65;;
73776;SDS011;62088;50.240;2.696;2023-11-18T05:38:31;11.65;;;6.57;;
73776;SDS011;62088;50.240;2.696;2023-11-18T05:41:01;18.85;;;6.30;;
73776;SDS011;62088;50.240;2.696;2023-11-18T05:43:31;14.30;;;7.03;;
73776;SDS011;62088;50.240;2.696;2023-11-18T05:46:07;20.00;;;9.35;;
73776;SDS011;62088;50.240;2.696;2023-11-18T05:48:42;13.75;;;7.07;;
73776;SDS011;62088;50.240;2.696;2023-11-18T05:51:10;16.55;;;8.75;;
73776;SDS011;62088;50.240;2.696;2023-11-18T05:53:41;14.82;;;7.85;;
73776;SDS011;62088;50.240;2.696;2023-11-18T05:56:12;20.23;;;8.32;;
73776;SDS011;62088;50.240;2.696;2023-11-18T05:58:40;19.08;;;8.45;;
73776;SDS011;62088;50.240;2.696;2023-11-18T06:01:07;14.80;;;7.47;;
73776;SDS011;62088;50.240;2.696;2023-11-18T06:03:34;13.75;;;7.60;;
73776;SDS011;62088;50.240;2.696;2023-11-18T06:06:06;14.02;;;7.55;;
73776;SDS011;62088;50.240;2.696;2023-11-18T06:08:34;15.52;;;7.47;;
73776;SDS011;62088;50.240;2.696;2023-11-18T06:11:02;16.90;;;8.57;;
73776;SDS011;62088;50.240;2.696;2023-11-18T06:13:43;13.23;;;6.95;;
73776;SDS011;62088;50.240;2.696;2023-11-18T06:16:13;12.85;;;7.50;;
73776;SDS011;62088;50.240;2.696;2023-11-18T06:18:44;14.10;;;7.82;;
73776;SDS011;62088;50.240;2.696;2023-11-18T06:21:12;11.48;;;7.85;;
73776;SDS011;62088;50.240;2.696;2023-11-18T06:23:40;11.48;;;7.28;;
73776;SDS011;62088;50.240;2.696;2023-11-18T06:26:11;12.32;;;7.15;;
73776;SDS011;62088;50.240;2.696;2023-11-18T06:28:39;12.48;;;7.55;;
73776;SDS011;62088;50.240;2.696;2023-11-18T06:31:07;13.25;;;8.05;;
73776;SDS011;62088;50.240;2.696;2023-11-18T06:33:38;16.13;;;8.48;;
73776;SDS011;62088;50.240;2.696;2023-11-18T06:36:09;12.18;;;7.65;;
73776;SDS011;62088;50.240;2.696;2023-11-18T06:38:44;18.58;;;8.20;;
73776;SDS011;62088;50.240;2.696;2023-11-18T06:41:12;15.80;;;8.25;;
73776;SDS011;62088;50.240;2.696;2023-11-18T06:43:40;14.48;;;8.23;;
73776;SDS011;62088;50.240;2.696;2023-11-18T06:46:29;12.55;;;8.73;;
73776;SDS011;62088;50.240;2.696;2023-11-18T06:49:01;16.38;;;8.10;;
73776;SDS011;62088;50.240;2.696;2023-11-18T06:51:35;20.17;;;8.27;;
73776;SDS011;62088;50.240;2.696;2023-11-18T06:54:04;21.50;;;8.90;;
73776;SDS011;62088;50.240;2.696;2023-11-18T06:56:37;18.20;;;8.65;;
73776;SDS011;62088;50.240;2.696;2023-11-18T06:59:08;14.23;;;8.52;;
73776;SDS011;62088;50.240;2.696;2023-11-18T07:01:39;13.68;;;7.72;;
73776;SDS011;62088;50.240;2.696;2023-11-18T07:04:09;13.38;;;8.13;;
73776;SDS011;62088;50.240;2.696;2023-11-18T07:06:37;12.68;;;7.25;;
73776;SDS011;62088;50.240;2.696;2023-11-18T07:09:08;12.30;;;7.60;;
73776;SDS011;62088;50.240;2.696;2023-11-18T07:11:39;12.23;;;7.70;;
73776;SDS011;62088;50.240;2.696;2023-11-18T07:14:07;13.80;;;6.72;;
73776;SDS011;62088;50.240;2.696;2023-11-18T07:16:57;11.95;;;6.50;;
73776;SDS011;62088;50.240;2.696;2023-11-18T07:19:24;10.38;;;6.75;;
73776;SDS011;62088;50.240;2.696;2023-11-18T07:21:51;9.77;;;6.85;;
73776;SDS011;62088;50.240;2.696;2023-11-18T07:24:19;11.32;;;7.88;;
73776;SDS011;62088;50.240;2.696;2023-11-18T07:26:47;11.05;;;6.50;;
73776;SDS011;62088;50.240;2.696;2023-11-18T07:29:15;11.88;;;7.85;;
73776;SDS011;62088;50.240;2.696;2023-11-18T07:31:43;8.35;;;6.10;;
73776;SDS011;62088;50.240;2.696;2023-11-18T07:34:12;13.23;;;6.72;;
73776;SDS011;62088;50.240;2.696;2023-11-18T07:36:39;10.40;;;6.00;;
73776;SDS011;62088;50.240;2.696;2023-11-18T07:39:06;12.85;;;6.72;;
73776;SDS011;62088;50.240;2.696;2023-11-18T07:41:42;12.13;;;4.97;;
73776;SDS011;62088;50.240;2.696;2023-11-18T07:44:10;13.40;;;6.85;;
73776;SDS011;62088;50.240;2.696;2023-11-18T07:46:39;11.80;;;5.93;;
73776;SDS011;62088;50.240;2.696;2023-11-18T07:49:09;8.80;;;4.50;;
73776;SDS011;62088;50.240;2.696;2023-11-18T07:51:38;11.77;;;4.88;;
73776;SDS011;62088;50.240;2.696;2023-11-18T07:54:07;10.38;;;4.60;;
73776;SDS011;62088;50.240;2.696;2023-11-18T07:56:36;10.55;;;4.53;;
73776;SDS011;62088;50.240;2.696;2023-11-18T07:59:04;7.35;;;4.03;;
73776;SDS011;62088;50.240;2.696;2023-11-18T08:01:33;8.43;;;4.88;;
73776;SDS011;62088;50.240;2.696;2023-11-18T08:04:00;10.85;;;4.15;;
73776;SDS011;62088;50.240;2.696;2023-11-18T08:06:27;8.73;;;3.50;;
73776;SDS011;62088;50.240;2.696;2023-11-18T08:08:54;5.78;;;3.22;;
73776;SDS011;62088;50.240;2.696;2023-11-18T08:11:24;11.18;;;3.80;;
73776;SDS011;62088;50.240;2.696;2023-11-18T08:13:51;9.95;;;3.58;;
73776;SDS011;62088;50.240;2.696;2023-11-18T08:16:20;8.30;;;3.60;;
73776;SDS011;62088;50.240;2.696;2023-11-18T08:18:48;8.30;;;3.97;;
73776;SDS011;62088;50.240;2.696;2023-11-18T08:21:15;11.55;;;3.88;;
73776;SDS011;62088;50.240;2.696;2023-11-18T08:23:42;5.95;;;3.53;;
73776;SDS011;62088;50.240;2.696;2023-11-18T08:26:11;6.38;;;3.15;;
73776;SDS011;62088;50.240;2.696;2023-11-18T08:28:38;6.25;;;2.80;;
73776;SDS011;62088;50.240;2.696;2023-11-18T08:31:24;6.22;;;2.72;;
73776;SDS011;62088;50.240;2.696;2023-11-18T08:33:52;7.28;;;3.85;;
73776;SDS011;62088;50.240;2.696;2023-11-18T08:36:20;5.70;;;3.03;;
73776;SDS011;62088;50.240;2.696;2023-11-18T08:38:53;9.80;;;3.00;;
73776;SDS011;62088;50.240;2.696;2023-11-18T08:41:22;9.95;;;3.13;;
73776;SDS011;62088;50.240;2.696;2023-11-18T08:43:50;5.78;;;2.50;;
73776;SDS011;62088;50.240;2.696;2023-11-18T08:46:17;5.88;;;2.75;;
73776;SDS011;62088;50.240;2.696;2023-11-18T08:48:44;10.43;;;2.30;;
73776;SDS011;62088;50.240;2.696;2023-11-18T08:51:11;4.00;;;1.92;;
73776;SDS011;62088;50.240;2.696;2023-11-18T08:53:40;4.68;;;2.53;;
73776;SDS011;62088;50.240;2.696;2023-11-18T08:56:12;3.60;;;1.98;;
73776;SDS011;62088;50.240;2.696;2023-11-18T08:58:42;4.55;;;2.28;;
73776;SDS011;62088;50.240;2.696;2023-11-18T09:01:11;4.22;;;2.13;;
73776;SDS011;62088;50.240;2.696;2023-11-18T09:03:42;3.70;;;2.20;;
73776;SDS011;62088;50.240;2.696;2023-11-18T09:06:10;6.00;;;2.03;;
73776;SDS011;62088;50.240;2.696;2023-11-18T09:08:45;5.80;;;2.15;;
73776;SDS011;62088;50.240;2.696;2023-11-18T09:11:20;4.15;;;2.13;;
73776;SDS011;62088;50.240;2.696;2023-11-18T09:13:49;3.80;;;2.10;;
73776;SDS011;62088;50.240;2.696;2023-11-18T09:16:21;3.38;;;1.60;;
73776;SDS011;62088;50.240;2.696;2023-11-18T09:18:49;3.20;;;1.50;;
73776;SDS011;62088;50.240;2.696;2023-11-18T09:21:17;3.92;;;1.52;;
73776;SDS011;62088;50.240;2.696;2023-11-18T09:23:52;4.18;;;1.58;;
73776;SDS011;62088;50.240;2.696;2023-11-18T09:26:19;3.25;;;1.40;;
73776;SDS011;62088;50.240;2.696;2023-11-18T09:28:48;3.50;;;1.25;;
73776;SDS011;62088;50.240;2.696;2023-11-18T09:31:16;4.18;;;1.45;;
73776;SDS011;62088;50.240;2.696;2023-11-18T09:33:44;3.08;;;1.23;;
73776;SDS011;62088;50.240;2.696;2023-11-18T09:36:19;2.67;;;1.05;;
73776;SDS011;62088;50.240;2.696;2023-11-18T09:38:49;2.20;;;1.10;;
73776;SDS011;62088;50.240;2.696;2023-11-18T09:41:16;3.45;;;1.55;;
73776;SDS011;62088;50.240;2.696;2023-11-18T09:43:44;2.55;;;1.20;;
73776;SDS011;62088;50.240;2.696;2023-11-18T09:46:17;6.13;;;0.95;;
73776;SDS011;62088;50.240;2.696;2023-11-18T09:48:52;3.53;;;1.30;;
73776;SDS011;62088;50.240;2.696;2023-11-18T09:51:29;2.72;;;1.40;;
73776;SDS011;62088;50.240;2.696;2023-11-18T09:54:25;0.90;;;0.65;;
73776;SDS011;62088;50.240;2.696;2023-11-18T09:57:19;2.65;;;1.25;;
73776;SDS011;62088;50.240;2.696;2023-11-18T10:00:04;2.57;;;1.33;;
73776;SDS011;62088;50.240;2.696;2023-11-18T10:02:53;2.83;;;1.00;;
73776;SDS011;62088;50.240;2.696;2023-11-18T10:05:23;2.40;;;1.20;;
73776;SDS011;62088;50.240;2.696;2023-11-18T10:07:54;2.33;;;1.20;;
73776;SDS011;62088;50.240;2.696;2023-11-18T10:10:21;2.20;;;1.00;;
73776;SDS011;62088;50.240;2.696;2023-11-18T10:12:49;2.97;;;1.30;;
73776;SDS011;62088;50.240;2.696;2023-11-18T10:15:24;2.40;;;1.35;;
73776;SDS011;62088;50.240;2.696;2023-11-18T10:17:52;2.50;;;1.33;;
73776;SDS011;62088;50.240;2.696;2023-11-18T10:23:08;3.45;;;1.83;;
73776;SDS011;62088;50.240;2.696;2023-11-18T10:25:45;3.08;;;1.55;;
73776;SDS011;62088;50.240;2.696;2023-11-18T10:28:25;3.05;;;1.30;;
73776;SDS011;62088;50.240;2.696;2023-11-18T10:31:00;2.88;;;1.45;;
73776;SDS011;62088;50.240;2.696;2023-11-18T10:33:32;3.55;;;1.58;;
73776;SDS011;62088;50.240;2.696;2023-11-18T10:36:04;2.70;;;1.30;;
73776;SDS011;62088;50.240;2.696;2023-11-18T10:38:39;2.88;;;1.23;;
73776;SDS011;62088;50.240;2.696;2023-11-18T10:41:16;2.53;;;1.27;;
73776;SDS011;62088;50.240;2.696;2023-11-18T10:43:45;3.35;;;1.50;;
73776;SDS011;62088;50.240;2.696;2023-11-18T10:46:15;2.03;;;1.00;;
73776;SDS011;62088;50.240;2.696;2023-11-18T10:48:44;3.40;;;1.13;;
73776;SDS011;62088;50.240;2.696;2023-11-18T10:51:18;2.22;;;1.20;;
73776;SDS011;62088;50.240;2.696;2023-11-18T10:53:46;3.60;;;1.65;;
73776;SDS011;62088;50.240;2.696;2023-11-18T10:56:25;2.75;;;1.50;;
73776;SDS011;62088;50.240;2.696;2023-11-18T10:58:56;1.90;;;1.00;;
73776;SDS011;62088;50.240;2.696;2023-11-18T11:01:36;2.92;;;1.27;;
73776;SDS011;62088;50.240;2.696;2023-11-18T11:04:13;3.72;;;1.30;;
73776;SDS011;62088;50.240;2.696;2023-11-18T11:06:44;2.60;;;1.33;;
73776;SDS011;62088;50.240;2.696;2023-11-18T11:09:21;5.18;;;1.42;;
73776;SDS011;62088;50.240;2.696;2023-11-18T11:12:04;3.10;;;1.57;;
73776;SDS011;62088;50.240;2.696;2023-11-18T11:14:46;2.58;;;1.35;;
73776;SDS011;62088;50.240;2.696;2023-11-18T11:17:20;3.70;;;1.33;;
73776;SDS011;62088;50.240;2.696;2023-11-18T11:20:04;3.42;;;1.52;;
73776;SDS011;62088;50.240;2.696;2023-11-18T11:28:42;3.00;;;1.73;;
73776;SDS011;62088;50.240;2.696;2023-11-18T11:31:32;3.45;;;1.73;;
73776;SDS011;62088;50.240;2.696;2023-11-18T11:34:18;3.88;;;2.05;;
73776;SDS011;62088;50.240;2.696;2023-11-18T11:36:47;3.65;;;1.77;;
73776;SDS011;62088;50.240;2.696;2023-11-18T11:39:18;4.88;;;1.63;;
73776;SDS011;62088;50.240;2.696;2023-11-18T11:41:54;3.10;;;1.60;;
73776;SDS011;62088;50.240;2.696;2023-11-18T11:44:41;4.38;;;1.80;;
73776;SDS011;62088;50.240;2.696;2023-11-18T11:47:10;4.30;;;1.92;;
73776;SDS011;62088;50.240;2.696;2023-11-18T11:49:47;3.60;;;1.80;;
73776;SDS011;62088;50.240;2.696;2023-11-18T11:52:37;2.95;;;1.58;;
73776;SDS011;62088;50.240;2.696;2023-11-18T11:55:31;3.85;;;1.85;;
73776;SDS011;62088;50.240;2.696;2023-11-18T11:58:05;7.20;;;2.10;;
73776;SDS011;62088;50.240;2.696;2023-11-18T12:01:00;2.83;;;1.27;;
73776;SDS011;62088;50.240;2.696;2023-11-18T12:03:40;3.97;;;2.05;;
73776;SDS011;62088;50.240;2.696;2023-11-18T12:06:17;2.53;;;1.33;;
73776;SDS011;62088;50.240;2.696;2023-11-18T12:08:47;3.65;;;2.05;;
73776;SDS011;62088;50.240;2.696;2023-11-18T12:11:18;4.50;;;1.65;;
73776;SDS011;62088;50.240;2.696;2023-11-18T12:14:02;6.70;;;1.63;;
73776;SDS011;62088;50.240;2.696;2023-11-18T12:17:02;3.35;;;1.80;;
73776;SDS011;62088;50.240;2.696;2023-11-18T12:19:38;3.95;;;1.67;;
73776;SDS011;62088;50.240;2.696;2023-11-18T12:22:17;2.80;;;1.10;;
73776;SDS011;62088;50.240;2.696;2023-11-18T12:25:28;4.68;;;1.85;;
73776;SDS011;62088;50.240;2.696;2023-11-18T12:40:50;2.63;;;1.35;;
73776;SDS011;62088;50.240;2.696;2023-11-18T12:48:43;2.78;;;1.27;;
73776;SDS011;62088;50.240;2.696;2023-11-18T12:51:10;2.75;;;1.42;;
73776;SDS011;62088;50.240;2.696;2023-11-18T12:53:49;3.30;;;1.55;;
73776;SDS011;62088;50.240;2.696;2023-11-18T12:56:17;3.30;;;1.63;;
73776;SDS011;62088;50.240;2.696;2023-11-18T12:58:46;2.25;;;1.23;;
73776;SDS011;62088;50.240;2.696;2023-11-18T13:01:14;2.78;;;1.17;;
73776;SDS011;62088;50.240;2.696;2023-11-18T13:03:42;4.40;;;1.45;;
73776;SDS011;62088;50.240;2.696;2023-11-18T13:06:11;4.45;;;1.60;;
73776;SDS011;62088;50.240;2.696;2023-11-18T13:08:38;2.88;;;1.30;;
73776;SDS011;62088;50.240;2.696;2023-11-18T13:11:06;2.55;;;1.05;;
73776;SDS011;62088;50.240;2.696;2023-11-18T13:13:38;3.53;;;1.50;;
73776;SDS011;62088;50.240;2.696;2023-11-18T13:16:06;2.88;;;1.35;;
73776;SDS011;62088;50.240;2.696;2023-11-18T13:18:46;2.80;;;1.38;;
73776;SDS011;62088;50.240;2.696;2023-11-18T13:21:17;2.70;;;1.45;;
73776;SDS011;62088;50.240;2.696;2023-11-18T13:23:45;3.30;;;1.50;;
73776;SDS011;62088;50.240;2.696;2023-11-18T13:26:14;2.83;;;1.30;;
73776;SDS011;62088;50.240;2.696;2023-11-18T13:28:42;3.15;;;1.48;;
73776;SDS011;62088;50.240;2.696;2023-11-18T13:31:12;3.30;;;1.55;;
73776;SDS011;62088;50.240;2.696;2023-11-18T13:33:43;3.13;;;1.58;;
73776;SDS011;62088;50.240;2.696;2023-11-18T13:36:10;3.20;;;1.27;;
73776;SDS011;62088;50.240;2.696;2023-11-18T13:38:38;4.53;;;1.70;;
73776;SDS011;62088;50.240;2.696;2023-11-18T13:41:06;3.67;;;1.75;;
73776;SDS011;62088;50.240;2.696;2023-11-18T13:43:42;3.20;;;1.65;;
73776;SDS011;62088;50.240;2.696;2023-11-18T13:46:13;2.78;;;1.33;;
73776;SDS011;62088;50.240;2.696;2023-11-18T13:48:41;3.20;;;1.33;;
73776;SDS011;62088;50.240;2.696;2023-11-18T13:51:09;3.42;;;1.33;;
73776;SDS011;62088;50.240;2.696;2023-11-18T13:53:40;2.78;;;1.52;;
73776;SDS011;62088;50.240;2.696;2023-11-18T13:56:07;4.10;;;1.58;;
73776;SDS011;62088;50.240;2.696;2023-11-18T13:58:39;3.85;;;1.42;;
73776;SDS011;62088;50.240;2.696;2023-11-18T14:01:08;2.78;;;1.30;;
73776;SDS011;62088;50.240;2.696;2023-11-18T14:03:39;6.85;;;2.40;;
73776;SDS011;62088;50.240;2.696;2023-11-18T14:06:07;4.80;;;1.88;;
73776;SDS011;62088;50.240;2.696;2023-11-18T14:08:37;3.88;;;2.20;;
73776;SDS011;62088;50.240;2.696;2023-11-18T14:11:05;4.82;;;2.08;;
73776;SDS011;62088;50.240;2.696;2023-11-18T14:13:43;3.53;;;1.92;;
73776;SDS011;62088;50.240;2.696;2023-11-18T14:16:10;3.42;;;2.03;;
73776;SDS011;62088;50.240;2.696;2023-11-18T14:18:39;9.98;;;2.22;;
73776;SDS011;62088;50.240;2.696;2023-11-18T14:21:08;3.38;;;1.80;;
73776;SDS011;62088;50.240;2.696;2023-11-18T14:23:36;3.33;;;1.77;;
73776;SDS011;62088;50.240;2.696;2023-11-18T14:26:04;2.58;;;1.52;;
73776;SDS011;62088;50.240;2.696;2023-11-18T14:28:34;2.70;;;1.65;;
73776;SDS011;62088;50.240;2.696;2023-11-18T14:31:02;3.70;;;1.60;;
73776;SDS011;62088;50.240;2.696;2023-11-18T14:33:34;5.32;;;2.03;;
73776;SDS011;62088;50.240;2.696;2023-11-18T14:36:01;3.72;;;1.92;;
73776;SDS011;62088;50.240;2.696;2023-11-18T14:38:32;4.90;;;1.92;;
73776;SDS011;62088;50.240;2.696;2023-11-18T14:41:01;6.15;;;2.05;;
73776;SDS011;62088;50.240;2.696;2023-11-18T14:43:29;3.03;;;1.48;;
73776;SDS011;62088;50.240;2.696;2023-11-18T14:45:56;4.22;;;1.70;;
73776;SDS011;62088;50.240;2.696;2023-11-18T14:48:24;4.85;;;1.67;;
73776;SDS011;62088;50.240;2.696;2023-11-18T14:50:51;2.83;;;1.75;;
73776;SDS011;62088;50.240;2.696;2023-11-18T14:53:18;4.88;;;1.70;;
73776;SDS011;62088;50.240;2.696;2023-11-18T14:55:46;2.90;;;1.30;;
73776;SDS011;62088;50.240;2.696;2023-11-18T14:58:13;2.47;;;1.20;;
73776;SDS011;62088;50.240;2.696;2023-11-18T15:00:40;3.58;;;1.30;;
73776;SDS011;62088;50.240;2.696;2023-11-18T15:03:09;3.53;;;1.80;;
73776;SDS011;62088;50.240;2.696;2023-11-18T15:05:36;3.58;;;2.20;;
73776;SDS011;62088;50.240;2.696;2023-11-18T15:08:05;5.97;;;2.25;;
73776;SDS011;62088;50.240;2.696;2023-11-18T15:10:36;3.63;;;1.73;;
73776;SDS011;62088;50.240;2.696;2023-11-18T15:13:06;3.40;;;1.75;;
73776;SDS011;62088;50.240;2.696;2023-11-18T15:15:33;2.53;;;1.45;;
73776;SDS011;62088;50.240;2.696;2023-11-18T15:18:02;5.82;;;1.38;;
73776;SDS011;62088;50.240;2.696;2023-11-18T15:20:40;3.15;;;1.70;;
73776;SDS011;62088;50.240;2.696;2023-11-18T15:23:14;3.17;;;1.58;;
73776;SDS011;62088;50.240;2.696;2023-11-18T15:25:48;5.97;;;2.00;;
73776;SDS011;62088;50.240;2.696;2023-11-18T15:28:19;3.50;;;1.50;;
73776;SDS011;62088;50.240;2.696;2023-11-18T15:30:46;3.00;;;1.60;;
73776;SDS011;62088;50.240;2.696;2023-11-18T15:33:13;2.72;;;1.45;;